KESN/ESN METAR and TAF weather

Enter ICAO airport designator
Station Type Date Time Source
KESN METAR 2022/12/08 13:45 UTC NOAA

KESN 081345Z 01005KT 10SM CLR 10/09 A3029


Station Type Date Time Source
KESN Decoded METAR 2022/12/08 13:45 UTC NOAA

Easton / Newman Field, MD, United States (KESN) 38-48N 076-04W
Dec 08, 2022 - 08:45 AM EST / 2022.12.08 1345 UTC
Wind: from the N (010 degrees) at 6 MPH (5 KT):0
Visibility: 10 mile(s):0
Sky conditions: clear
Temperature: 50 F (10 C)
Dew Point: 48 F (9 C)
Relative Humidity: 93%
Pressure (altimeter): 30.29 in. Hg (1025 hPa)
ob: KESN 081345Z 01005KT 10SM CLR 10/09 A3029
cycle: 14

Station Type Date Time Source
KESN TAF UTC NOAA

Error!

Example: see airport list